CheckWX is a tool to help pilots better visualize weather data.  It is not intended as a substitute for an official pre-flight weather briefing.

08:57:13 UTC

KGNC METAR
Gaines County Airport
Seminole, Texas, USA
Current

22 mins ago

KGNC 220835Z AUTO 08005KT 10SM CLR 02/00 A2989 RMK AO2 T00151005
Observed
Feb-22 @ 08:35 UTC
Wind
  • 080° at 5 KTS
Visibility
10 SM
Flight Rules
VFR
Cloud Levels
  • Clear skies
Temperature
C / 36°F
Dewpoint
-1°C / 30°F
Humidity
81%
Altimeter
29.89" Hg
Pressure
1012.22 hPa
Previous

42 mins ago

KGNC 220815Z AUTO 10006KT 10SM CLR 02/00 A2989 RMK AO2 T00151005
Observed
Feb-22 @ 08:15 UTC
Wind
  • 100° at 6 KTS
Visibility
10 SM
Flight Rules
VFR
Cloud Levels
  • Clear skies
Temperature
C / 36°F
Dewpoint
-1°C / 30°F
Humidity
81%
Altimeter
29.89" Hg
Pressure
1012.22 hPa
Previous

1 hour ago

KGNC 220755Z AUTO 11006KT 10SM CLR 02/00 A2989 RMK AO2 T00201005
Observed
Feb-22 @ 07:55 UTC
Wind
  • 110° at 6 KTS
Visibility
10 SM
Flight Rules
VFR
Cloud Levels
  • Clear skies
Temperature
C / 36°F
Dewpoint
-1°C / 30°F
Humidity
81%
Altimeter
29.89" Hg
Pressure
1012.22 hPa